PWSweather.com
Personal Weather Stations
Station Observations
WATERF01
WaterfordIE

WaterfordIE

Lat: 52.2412507, Lon: -7.1414691

Elevation: 65

Station Type: Davis Vantage Vue

www.waterfordweather.com

High Low Average
Temperature 63.4°F17.4°C 48.8°F9.3°C 57.5°F14.2°C
Dew Point 47.1°F8.4°C 41.6°F5.3°C 44.8°F7.1°C
Winds 12.7 mph 20.4 kmh Calm Calm 5.0 mph ESE8.0 kmh ESE
Wind Gusts 20.7 mph33.3 kmh 2.3 mph3.7 kmh 9.0 mph14.5 kmh
Humidity 77% 53% 63%
Pressure 30.42 in1030.1 mb 30.38 in1028.8 mb -
Precipitation 0.00 in0.0 mm - -
Hour Temp Dew Point Humidity Winds Wind Gusts Pressure Precip Precip Rate Daily Precip Total
10:50 AM 55.8°F13.2°C 42.1°F5.6°C 60% 6.9 mph 11.1 kmh 11.5 mph18.5 kmh 30.42 in1030.1 mb - 0.00 in0.0 mm 0.00 in0.0 mm
11:00 AM 55.8°F13.2°C 42.1°F5.6°C 60% 4.6 mph N7.4 kmh N 6.9 mph11.1 kmh 30.42 in1030.1 mb - 0.00 in0.0 mm 0.00 in0.0 mm
11:10 AM 55.8°F13.2°C 42.1°F5.6°C 60% 4.6 mph N7.4 kmh N 11.5 mph18.5 kmh 30.42 in1030.1 mb - 0.00 in0.0 mm 0.00 in0.0 mm
11:20 AM 57.3°F14.1°C 42.6°F5.9°C 58% 3.5 mph E5.6 kmh E 4.6 mph7.4 kmh 30.42 in1030.1 mb - 0.00 in0.0 mm 0.00 in0.0 mm
11:30 AM 57.7°F14.3°C 42.6°F5.9°C 57% 4.6 mph ESE7.4 kmh ESE 11.5 mph18.5 kmh 30.42 in1030.1 mb - 0.00 in0.0 mm 0.00 in0.0 mm
11:40 AM 58.6°F14.8°C 43.4°F6.3°C 57% 3.5 mph SSE5.6 kmh SSE 8.1 mph13.0 kmh 30.42 in1030.1 mb - 0.00 in0.0 mm 0.00 in0.0 mm
11:50 AM 58.9°F14.9°C 43.7°F6.5°C 57% 2.3 mph E3.7 kmh E 8.1 mph13.0 kmh 30.41 in1029.8 mb - 0.00 in0.0 mm 0.00 in0.0 mm
12:00 PM 59.7°F15.4°C 44.4°F6.9°C 57% 3.5 mph E5.6 kmh E 8.1 mph13.0 kmh 30.41 in1029.8 mb - 0.00 in0.0 mm 0.00 in0.0 mm
12:10 PM 60.0°F15.6°C 44.3°F6.8°C 56% 4.6 mph E7.4 kmh E 8.1 mph13.0 kmh 30.41 in1029.8 mb - 0.00 in0.0 mm 0.00 in0.0 mm
12:20 PM 60.3°F15.7°C 44.1°F6.7°C 55% 3.5 mph N5.6 kmh N 6.9 mph11.1 kmh 30.41 in1029.8 mb - 0.00 in0.0 mm 0.00 in0.0 mm
12:30 PM 59.8°F15.4°C 43.6°F6.4°C 55% 4.6 mph NW7.4 kmh NW 8.1 mph13.0 kmh 30.41 in1029.8 mb - 0.00 in0.0 mm 0.00 in0.0 mm
12:40 PM 60.5°F15.8°C 44.2°F6.8°C 55% 4.6 mph N7.4 kmh N 8.1 mph13.0 kmh 30.41 in1029.8 mb - 0.00 in0.0 mm 0.00 in0.0 mm
12:50 PM 60.9°F16.1°C 44.6°F7.0°C 55% 6.9 mph E11.1 kmh E 8.1 mph13.0 kmh 30.41 in1029.8 mb - 0.00 in0.0 mm 0.00 in0.0 mm
01:00 PM 61.4°F16.3°C 45.5°F7.5°C 56% 5.8 mph E9.3 kmh E 8.1 mph13.0 kmh 30.41 in1029.8 mb - 0.00 in0.0 mm 0.00 in0.0 mm
01:10 PM 61.9°F16.6°C 45.5°F7.5°C 55% 5.8 mph E9.3 kmh E 13.8 mph22.2 kmh 30.41 in1029.8 mb - 0.00 in0.0 mm 0.00 in0.0 mm
01:20 PM 61.6°F16.4°C 44.8°F7.1°C 54% 3.5 mph N5.6 kmh N 5.8 mph9.3 kmh 30.41 in1029.8 mb - 0.00 in0.0 mm 0.00 in0.0 mm
01:30 PM 62.3°F16.8°C 45.4°F7.4°C 54% 4.6 mph NNE7.4 kmh NNE 6.9 mph11.1 kmh 30.41 in1029.8 mb - 0.00 in0.0 mm 0.00 in0.0 mm
01:40 PM 62.3°F16.8°C 45.4°F7.4°C 54% 5.8 mph ESE9.3 kmh ESE 11.5 mph18.5 kmh 30.41 in1029.8 mb - 0.00 in0.0 mm 0.00 in0.0 mm
01:50 PM 62.9°F17.2°C 45.5°F7.5°C 53% 4.6 mph NE7.4 kmh NE 8.1 mph13.0 kmh 30.41 in1029.8 mb - 0.00 in0.0 mm 0.00 in0.0 mm
02:00 PM 62.9°F17.2°C 45.5°F7.5°C 53% 2.3 mph E3.7 kmh E 5.8 mph9.3 kmh 30.41 in1029.8 mb - 0.00 in0.0 mm 0.00 in0.0 mm
02:10 PM 62.8°F17.1°C 45.9°F7.7°C 54% 4.6 mph E7.4 kmh E 8.1 mph13.0 kmh 30.40 in1029.5 mb - 0.00 in0.0 mm 0.00 in0.0 mm
02:20 PM 63.0°F17.2°C 46.0°F7.8°C 54% 4.6 mph NNW7.4 kmh NNW 11.5 mph18.5 kmh 30.40 in1029.5 mb - 0.00 in0.0 mm 0.00 in0.0 mm
02:30 PM 63.4°F17.4°C 46.0°F7.8°C 53% 4.6 mph E7.4 kmh E 9.2 mph14.8 kmh 30.40 in1029.5 mb - 0.00 in0.0 mm 0.00 in0.0 mm
02:40 PM 63.4°F17.4°C 46.0°F7.8°C 53% 4.6 mph W7.4 kmh W 8.1 mph13.0 kmh 30.40 in1029.5 mb - 0.00 in0.0 mm 0.00 in0.0 mm
02:50 PM 62.9°F17.2°C 46.5°F8.1°C 55% 1.2 mph E1.9 kmh E 2.3 mph3.7 kmh 30.40 in1029.5 mb - 0.00 in0.0 mm 0.00 in0.0 mm
03:00 PM 63.3°F17.4°C 45.8°F7.7°C 53% 1.2 mph WNW1.9 kmh WNW 2.3 mph3.7 kmh 30.39 in1029.1 mb - 0.00 in0.0 mm 0.00 in0.0 mm
03:10 PM 63.1°F17.3°C 45.7°F7.6°C 53% 2.3 mph ENE3.7 kmh ENE 5.8 mph9.3 kmh 30.39 in1029.1 mb - 0.00 in0.0 mm 0.00 in0.0 mm
03:20 PM 62.6°F17.0°C 45.7°F7.6°C 54% 3.5 mph E5.6 kmh E 6.9 mph11.1 kmh 30.39 in1029.1 mb - 0.00 in0.0 mm 0.00 in0.0 mm
03:30 PM 63.2°F17.3°C 45.7°F7.6°C 53% 5.8 mph ENE9.3 kmh ENE 13.8 mph22.2 kmh 30.39 in1029.1 mb - 0.00 in0.0 mm 0.00 in0.0 mm
03:40 PM 62.5°F16.9°C 45.1°F7.3°C 53% 11.5 mph E18.5 kmh E 16.1 mph25.9 kmh 30.39 in1029.1 mb - 0.00 in0.0 mm 0.00 in0.0 mm
03:50 PM 62.3°F16.8°C 45.4°F7.4°C 54% 6.9 mph E11.1 kmh E 11.5 mph18.5 kmh 30.38 in1028.8 mb - 0.00 in0.0 mm 0.00 in0.0 mm
04:00 PM 62.3°F16.8°C 45.0°F7.2°C 53% 4.6 mph E7.4 kmh E 9.2 mph14.8 kmh 30.39 in1029.1 mb - 0.00 in0.0 mm 0.00 in0.0 mm
04:10 PM 62.6°F17.0°C 45.7°F7.6°C 54% 9.2 mph E14.8 kmh E 16.1 mph25.9 kmh 30.39 in1029.1 mb - 0.00 in0.0 mm 0.00 in0.0 mm
04:20 PM 61.9°F16.6°C 45.1°F7.3°C 54% 9.2 mph E14.8 kmh E 18.4 mph29.6 kmh 30.39 in1029.1 mb - 0.00 in0.0 mm 0.00 in0.0 mm
04:30 PM 61.8°F16.6°C 45.4°F7.4°C 55% 4.6 mph E7.4 kmh E 6.9 mph11.1 kmh 30.38 in1028.8 mb - 0.00 in0.0 mm 0.00 in0.0 mm
04:40 PM 61.3°F16.3°C 46.8°F8.2°C 59% 8.1 mph E13.0 kmh E 16.1 mph25.9 kmh 30.38 in1028.8 mb - 0.00 in0.0 mm 0.00 in0.0 mm
04:50 PM 61.0°F16.1°C 46.1°F7.8°C 58% 12.7 mph ESE20.4 kmh ESE 20.7 mph33.3 kmh 30.38 in1028.8 mb - 0.00 in0.0 mm 0.00 in0.0 mm
05:00 PM 60.5°F15.8°C 46.1°F7.8°C 59% 6.9 mph E11.1 kmh E 12.7 mph20.4 kmh 30.38 in1028.8 mb - 0.00 in0.0 mm 0.00 in0.0 mm
05:10 PM 60.2°F15.7°C 46.3°F7.9°C 60% 11.5 mph E18.5 kmh E 18.4 mph29.6 kmh 30.38 in1028.8 mb - 0.00 in0.0 mm 0.00 in0.0 mm
05:20 PM 60.3°F15.7°C 46.8°F8.2°C 61% 5.8 mph E9.3 kmh E 11.5 mph18.5 kmh 30.39 in1029.1 mb - 0.00 in0.0 mm 0.00 in0.0 mm
05:30 PM 59.7°F15.4°C 47.1°F8.4°C 63% 10.4 mph ESE16.7 kmh ESE 18.4 mph29.6 kmh 30.39 in1029.1 mb - 0.00 in0.0 mm 0.00 in0.0 mm
05:40 PM 59.2°F15.1°C 46.6°F8.1°C 63% 9.2 mph E14.8 kmh E 15.0 mph24.1 kmh 30.39 in1029.1 mb - 0.00 in0.0 mm 0.00 in0.0 mm
05:50 PM 59.3°F15.2°C 46.7°F8.2°C 63% 9.2 mph E14.8 kmh E 15.0 mph24.1 kmh 30.39 in1029.1 mb - 0.00 in0.0 mm 0.00 in0.0 mm
06:00 PM 58.9°F14.9°C 46.7°F8.2°C 64% 9.2 mph E14.8 kmh E 16.1 mph25.9 kmh 30.39 in1029.1 mb - 0.00 in0.0 mm 0.00 in0.0 mm
06:10 PM 59.0°F15.0°C 46.8°F8.2°C 64% 6.9 mph E11.1 kmh E 16.1 mph25.9 kmh 30.40 in1029.5 mb - 0.00 in0.0 mm 0.00 in0.0 mm
06:20 PM 58.6°F14.8°C 46.4°F8.0°C 64% 9.2 mph E14.8 kmh E 15.0 mph24.1 kmh 30.39 in1029.1 mb - 0.00 in0.0 mm 0.00 in0.0 mm
06:30 PM 58.5°F14.7°C 46.8°F8.2°C 65% 11.5 mph E18.5 kmh E 15.0 mph24.1 kmh 30.39 in1029.1 mb - 0.00 in0.0 mm 0.00 in0.0 mm
06:40 PM 57.6°F14.2°C 45.9°F7.7°C 65% 9.2 mph E14.8 kmh E 15.0 mph24.1 kmh 30.39 in1029.1 mb - 0.00 in0.0 mm 0.00 in0.0 mm
06:50 PM 57.5°F14.2°C 46.2°F7.9°C 66% 4.6 mph E7.4 kmh E 9.2 mph14.8 kmh 30.40 in1029.5 mb - 0.00 in0.0 mm 0.00 in0.0 mm
07:00 PM 57.1°F13.9°C 46.2°F7.9°C 67% 9.2 mph E14.8 kmh E 12.7 mph20.4 kmh 30.39 in1029.1 mb - 0.00 in0.0 mm 0.00 in0.0 mm
07:10 PM 56.6°F13.7°C 45.8°F7.7°C 67% 5.8 mph E9.3 kmh E 13.8 mph22.2 kmh 30.39 in1029.1 mb - 0.00 in0.0 mm 0.00 in0.0 mm
07:20 PM 56.2°F13.4°C 45.8°F7.7°C 68% 9.2 mph E14.8 kmh E 15.0 mph24.1 kmh 30.40 in1029.5 mb - 0.00 in0.0 mm 0.00 in0.0 mm
07:30 PM 55.7°F13.2°C 45.7°F7.6°C 69% 5.8 mph E9.3 kmh E 16.1 mph25.9 kmh 30.40 in1029.5 mb - 0.00 in0.0 mm 0.00 in0.0 mm
07:40 PM 55.3°F12.9°C 45.7°F7.6°C 70% 8.1 mph ESE13.0 kmh ESE 15.0 mph24.1 kmh 30.40 in1029.5 mb - 0.00 in0.0 mm 0.00 in0.0 mm
07:50 PM 54.9°F12.7°C 45.7°F7.6°C 71% 5.8 mph E9.3 kmh E 12.7 mph20.4 kmh 30.40 in1029.5 mb - 0.00 in0.0 mm 0.00 in0.0 mm
08:00 PM 54.7°F12.6°C 45.1°F7.3°C 70% 8.1 mph E13.0 kmh E 16.1 mph25.9 kmh 30.40 in1029.5 mb - 0.00 in0.0 mm 0.00 in0.0 mm
08:10 PM 54.4°F12.4°C 44.8°F7.1°C 70% 5.8 mph E9.3 kmh E 13.8 mph22.2 kmh 30.40 in1029.5 mb - 0.00 in0.0 mm 0.00 in0.0 mm
08:20 PM 54.0°F12.2°C 44.8°F7.1°C 71% 4.6 mph E7.4 kmh E 8.1 mph13.0 kmh 30.40 in1029.5 mb - 0.00 in0.0 mm 0.00 in0.0 mm
08:30 PM 53.7°F12.1°C 44.9°F7.2°C 72% 3.5 mph E5.6 kmh E 6.9 mph11.1 kmh 30.41 in1029.8 mb - 0.00 in0.0 mm 0.00 in0.0 mm
08:40 PM 53.5°F11.9°C 44.7°F7.1°C 72% 2.3 mph E3.7 kmh E 6.9 mph11.1 kmh 30.41 in1029.8 mb - 0.00 in0.0 mm 0.00 in0.0 mm
08:50 PM 53.3°F11.8°C 44.9°F7.2°C 73% Calm Calm 2.3 mph3.7 kmh 30.41 in1029.8 mb - 0.00 in0.0 mm 0.00 in0.0 mm
09:00 PM 53.0°F11.7°C 44.6°F7.0°C 73% 1.2 mph W1.9 kmh W 5.8 mph9.3 kmh 30.41 in1029.8 mb - 0.00 in0.0 mm 0.00 in0.0 mm
09:10 PM 52.6°F11.4°C 44.5°F6.9°C 74% 1.2 mph ESE1.9 kmh ESE 4.6 mph7.4 kmh 30.41 in1029.8 mb - 0.00 in0.0 mm 0.00 in0.0 mm
09:20 PM 52.2°F11.2°C 44.2°F6.8°C 74% 1.2 mph S1.9 kmh S 2.3 mph3.7 kmh 30.41 in1029.8 mb - 0.00 in0.0 mm 0.00 in0.0 mm
09:30 PM 52.0°F11.1°C 44.0°F6.7°C 74% 2.3 mph ESE3.7 kmh ESE 2.3 mph3.7 kmh 30.41 in1029.8 mb - 0.00 in0.0 mm 0.00 in0.0 mm
09:40 PM 51.8°F11.0°C 44.2°F6.8°C 75% Calm Calm 2.3 mph3.7 kmh 30.41 in1029.8 mb - 0.00 in0.0 mm 0.00 in0.0 mm
09:50 PM 51.6°F10.9°C 43.9°F6.6°C 75% Calm Calm 2.3 mph3.7 kmh 30.41 in1029.8 mb - 0.00 in0.0 mm 0.00 in0.0 mm
10:00 PM 51.3°F10.7°C 44.0°F6.7°C 76% Calm Calm 2.3 mph3.7 kmh 30.41 in1029.8 mb - 0.00 in0.0 mm 0.00 in0.0 mm
10:10 PM 51.1°F10.6°C 43.8°F6.6°C 76% 1.2 mph E1.9 kmh E 2.3 mph3.7 kmh 30.41 in1029.8 mb - 0.00 in0.0 mm 0.00 in0.0 mm
10:20 PM 50.9°F10.5°C 43.6°F6.4°C 76% Calm Calm 2.3 mph3.7 kmh 30.41 in1029.8 mb - 0.00 in0.0 mm 0.00 in0.0 mm
10:30 PM 50.6°F10.3°C 43.3°F6.3°C 76% 3.5 mph E5.6 kmh E 8.1 mph13.0 kmh 30.41 in1029.8 mb - 0.00 in0.0 mm 0.00 in0.0 mm
10:40 PM 50.3°F10.2°C 43.0°F6.1°C 76% 4.6 mph E7.4 kmh E 6.9 mph11.1 kmh 30.40 in1029.5 mb - 0.00 in0.0 mm 0.00 in0.0 mm
10:50 PM 50.0°F10.0°C 43.1°F6.2°C 77% 3.5 mph E5.6 kmh E 5.8 mph9.3 kmh 30.40 in1029.5 mb - 0.00 in0.0 mm 0.00 in0.0 mm
11:00 PM 49.8°F9.9°C 42.5°F5.8°C 76% 3.5 mph E5.6 kmh E 5.8 mph9.3 kmh 30.40 in1029.5 mb - 0.00 in0.0 mm 0.00 in0.0 mm
11:10 PM 49.5°F9.7°C 42.2°F5.7°C 76% 1.2 mph E1.9 kmh E 2.3 mph3.7 kmh 30.40 in1029.5 mb - 0.00 in0.0 mm 0.00 in0.0 mm
11:20 PM 49.3°F9.6°C 42.1°F5.6°C 76% 2.3 mph E3.7 kmh E 2.3 mph3.7 kmh 30.40 in1029.5 mb - 0.00 in0.0 mm 0.00 in0.0 mm
11:30 PM 49.2°F9.6°C 41.9°F5.5°C 76% 1.2 mph NE1.9 kmh NE 4.6 mph7.4 kmh 30.40 in1029.5 mb - 0.00 in0.0 mm 0.00 in0.0 mm
11:40 PM 49.0°F9.4°C 41.8°F5.4°C 76% 1.2 mph SE1.9 kmh SE 5.8 mph9.3 kmh 30.40 in1029.5 mb - 0.00 in0.0 mm 0.00 in0.0 mm
11:50 PM 48.8°F9.3°C 41.6°F5.3°C 76% 1.2 mph ENE1.9 kmh ENE 4.6 mph7.4 kmh 30.39 in1029.1 mb - 0.00 in0.0 mm 0.00 in0.0 mm